Time;durP1;ratioP1;P1;durP2;ratioP2;P2;SDS_P1;SDS_P2;PMS_P1;PMS_P2;Temp;Humidity;BMP_temperature;BMP_pressure;BME280_temperature;BME280_humidity;BME280_pressure;Samples;Min_cycle;Max_cycle;Signal;HPM_P1;HPM_P2
2022/12/21 00:01:20;;;;;;;0.80;0.80;;;;;;;;;;4567438;27;20048;-58
2022/12/21 00:03:30;;;;;;;0.90;0.90;;;;;;;;;;4568272;27;20059;-58
2022/12/21 00:05:40;;;;;;;0.95;0.95;;;;;;;;;;4569383;27;20123;-58
2022/12/21 00:07:51;;;;;;;1.05;0.90;;;;;;;;;;4567729;27;20032;-58
2022/12/21 00:10:01;;;;;;;1.30;1.10;;;;;;;;;;4548522;27;20273;-58
2022/12/21 00:12:11;;;;;;;0.98;0.90;;;;;;;;;;4566704;27;20036;-58
2022/12/21 00:14:22;;;;;;;0.90;0.90;;;;;;;;;;4569336;27;20085;-58
2022/12/21 00:16:34;;;;;;;1.02;1.00;;;;;;;;;;4567478;27;20040;-58
2022/12/21 00:18:45;;;;;;;1.20;1.10;;;;;;;;;;4563957;27;20037;-58
2022/12/21 00:20:56;;;;;;;1.10;0.80;;;;;;;;;;4571649;27;20032;-57
2022/12/21 00:23:06;;;;;;;1.38;1.10;;;;;;;;;;4567415;27;20139;-58
2022/12/21 00:25:17;;;;;;;0.90;0.90;;;;;;;;;;4566259;27;20044;-58
2022/12/21 00:27:27;;;;;;;1.10;1.00;;;;;;;;;;4567344;27;20036;-58
2022/12/21 00:29:37;;;;;;;0.90;0.90;;;;;;;;;;4564156;27;20141;-58
2022/12/21 00:31:48;;;;;;;0.93;0.90;;;;;;;;;;4567945;27;20082;-58
2022/12/21 00:33:59;;;;;;;1.10;1.00;;;;;;;;;;4556192;27;20040;-58
2022/12/21 00:36:10;;;;;;;0.90;0.90;;;;;;;;;;4557073;27;20159;-58
2022/12/21 00:38:21;;;;;;;1.20;1.02;;;;;;;;;;4548025;27;20090;-58
2022/12/21 00:40:31;;;;;;;0.90;0.90;;;;;;;;;;4565106;27;20085;-58
2022/12/21 00:42:41;;;;;;;0.90;0.90;;;;;;;;;;4553293;28;20066;-58
2022/12/21 00:44:52;;;;;;;0.95;0.95;;;;;;;;;;4564507;27;20032;-58
2022/12/21 00:47:02;;;;;;;1.20;1.10;;;;;;;;;;4566755;27;20048;-58
2022/12/21 00:49:12;;;;;;;1.10;1.00;;;;;;;;;;4546250;27;20145;-57
2022/12/21 00:51:23;;;;;;;0.90;0.90;;;;;;;;;;4566532;27;20570;-58
2022/12/21 00:53:34;;;;;;;1.30;1.20;;;;;;;;;;4567488;27;20151;-58
2022/12/21 00:55:56;;;;;;;0.90;0.90;;;;;;;;;;4549626;27;20051;-58
2022/12/21 00:58:07;;;;;;;1.25;1.15;;;;;;;;;;4566128;27;20154;-58
2022/12/21 01:00:17;;;;;;;1.75;1.10;;;;;;;;;;4566650;27;20131;-58
2022/12/21 01:02:28;;;;;;;1.20;1.10;;;;;;;;;;4567694;27;20509;-58
2022/12/21 01:04:38;;;;;;;1.30;1.20;;;;;;;;;;4555719;27;20094;-58
2022/12/21 01:06:49;;;;;;;1.02;0.98;;;;;;;;;;4566092;27;20724;-58
2022/12/21 01:09:00;;;;;;;1.30;1.20;;;;;;;;;;4567812;27;20125;-58
2022/12/21 01:11:11;;;;;;;1.30;1.20;;;;;;;;;;4565746;27;20117;-58
2022/12/21 01:13:22;;;;;;;1.20;1.10;;;;;;;;;;4567053;27;20590;-58
2022/12/21 01:15:32;;;;;;;1.30;1.20;;;;;;;;;;4549199;27;20303;-58
2022/12/21 01:17:43;;;;;;;1.35;1.25;;;;;;;;;;4549244;27;20075;-58
2022/12/21 01:19:54;;;;;;;1.20;1.10;;;;;;;;;;4566861;27;20107;-58
2022/12/21 01:22:04;;;;;;;1.30;1.20;;;;;;;;;;4568384;27;20470;-57
2022/12/21 01:24:14;;;;;;;1.08;1.00;;;;;;;;;;4567975;27;20044;-57
2022/12/21 01:26:26;;;;;;;1.10;1.00;;;;;;;;;;4549648;28;20535;-57
2022/12/21 01:28:36;;;;;;;1.30;1.20;;;;;;;;;;4567321;27;20103;-57
2022/12/21 01:30:47;;;;;;;1.23;1.13;;;;;;;;;;4564873;27;20072;-58
2022/12/21 01:32:57;;;;;;;1.45;1.20;;;;;;;;;;4548097;28;20548;-58
2022/12/21 01:35:07;;;;;;;1.35;1.25;;;;;;;;;;4566999;27;20040;-58
2022/12/21 01:37:18;;;;;;;1.25;1.17;;;;;;;;;;4566108;27;20068;-58
2022/12/21 01:39:29;;;;;;;1.20;1.10;;;;;;;;;;4565260;27;20034;-58
2022/12/21 01:41:39;;;;;;;1.38;1.27;;;;;;;;;;4551535;27;20147;-58
2022/12/21 01:43:54;;;;;;;1.50;1.40;;;;;;;;;;4555232;27;20039;-57
2022/12/21 01:46:07;;;;;;;1.30;1.20;;;;;;;;;;4554834;27;20090;-57
2022/12/21 01:48:19;;;;;;;1.30;1.20;;;;;;;;;;4556222;28;20037;-58
2022/12/21 01:50:29;;;;;;;1.42;1.33;;;;;;;;;;4551041;27;20713;-58
2022/12/21 01:52:40;;;;;;;1.25;1.15;;;;;;;;;;4549216;27;20590;-57
2022/12/21 01:54:56;;;;;;;1.60;1.50;;;;;;;;;;4542472;27;20561;-58
2022/12/21 01:57:08;;;;;;;1.50;1.40;;;;;;;;;;4566688;27;20623;-58
2022/12/21 01:59:23;;;;;;;1.50;1.40;;;;;;;;;;4564386;27;20151;-58
2022/12/21 02:01:33;;;;;;;1.50;1.30;;;;;;;;;;4563418;27;20043;-58
2022/12/21 02:03:46;;;;;;;1.50;1.40;;;;;;;;;;4563188;27;20416;-58
2022/12/21 02:06:05;;;;;;;1.70;1.60;;;;;;;;;;4563817;27;20040;-57
2022/12/21 02:08:16;;;;;;;1.33;1.23;;;;;;;;;;4545179;28;20518;-58
2022/12/21 02:10:26;;;;;;;1.60;1.50;;;;;;;;;;4554943;27;20036;-58
2022/12/21 02:12:37;;;;;;;1.50;1.40;;;;;;;;;;4565209;27;20656;-58
2022/12/21 02:14:48;;;;;;;1.50;1.40;;;;;;;;;;4565452;27;20097;-58
2022/12/21 02:16:59;;;;;;;1.52;1.30;;;;;;;;;;4569139;27;20052;-57
2022/12/21 02:19:12;;;;;;;1.60;1.50;;;;;;;;;;4567084;27;20452;-58
2022/12/21 02:21:23;;;;;;;1.52;1.42;;;;;;;;;;4564484;27;21508;-58
2022/12/21 02:23:36;;;;;;;1.90;1.80;;;;;;;;;;4566937;27;20115;-57
2022/12/21 02:25:49;;;;;;;1.70;1.60;;;;;;;;;;4547644;27;20151;-58
2022/12/21 02:28:05;;;;;;;1.80;1.70;;;;;;;;;;4565922;27;20036;-58
2022/12/21 02:30:17;;;;;;;1.60;1.50;;;;;;;;;;4565270;27;20036;-58
2022/12/21 02:32:40;;;;;;;1.60;1.50;;;;;;;;;;4552219;27;20032;-58
2022/12/21 02:34:58;;;;;;;1.75;1.65;;;;;;;;;;4547823;27;20368;-58
2022/12/21 02:37:21;;;;;;;1.55;1.40;;;;;;;;;;4569470;27;20137;-57
2022/12/21 02:39:34;;;;;;;2.00;1.80;;;;;;;;;;4569004;27;20302;-57
2022/12/21 02:41:52;;;;;;;1.95;1.80;;;;;;;;;;4573892;27;20048;-58
2022/12/21 02:44:14;;;;;;;1.70;1.60;;;;;;;;;;4559933;27;20595;-58
2022/12/21 02:46:48;;;;;;;2.03;1.90;;;;;;;;;;4557453;28;20128;-58
2022/12/21 02:49:05;;;;;;;1.75;1.65;;;;;;;;;;4559906;27;20172;-58
2022/12/21 02:51:22;;;;;;;2.08;1.88;;;;;;;;;;4560577;27;20040;-58
2022/12/21 02:53:34;;;;;;;1.80;1.70;;;;;;;;;;4567969;27;20040;-58
2022/12/21 02:55:45;;;;;;;1.73;1.63;;;;;;;;;;4568928;27;20074;-58
2022/12/21 02:58:14;;;;;;;1.80;1.70;;;;;;;;;;4559476;27;20039;-58
2022/12/21 03:00:24;;;;;;;1.90;1.80;;;;;;;;;;4567929;27;20816;-57
2022/12/21 03:03:47;;;;;;;1.77;1.67;;;;;;;;;;4554582;27;20028;-58
2022/12/21 03:05:44;;;;;;;1.80;1.70;;;;;;;;;;4558056;27;20066;-58
2022/12/21 03:07:54;;;;;;;2.13;1.85;;;;;;;;;;4554747;27;20020;-57
2022/12/21 03:10:08;;;;;;;2.22;1.98;;;;;;;;;;4569028;27;20033;-57
2022/12/21 03:12:29;;;;;;;2.20;2.00;;;;;;;;;;4554085;27;20051;-57
2022/12/21 03:14:52;;;;;;;2.20;2.00;;;;;;;;;;4570573;27;20117;-58
2022/12/21 03:17:14;;;;;;;2.05;1.90;;;;;;;;;;4549963;27;20040;-58
2022/12/21 03:19:45;;;;;;;2.45;2.25;;;;;;;;;;4563941;27;20657;-57
2022/12/21 03:22:07;;;;;;;2.20;2.00;;;;;;;;;;4538299;27;21033;-57
2022/12/21 03:24:36;;;;;;;2.25;2.05;;;;;;;;;;4565389;27;20113;-58
2022/12/21 03:26:51;;;;;;;2.20;2.00;;;;;;;;;;4565414;27;21169;-56
2022/12/21 03:29:03;;;;;;;2.20;2.00;;;;;;;;;;4568179;27;20570;-58
2022/12/21 03:31:15;;;;;;;2.28;2.08;;;;;;;;;;4567819;27;20031;-58
2022/12/21 03:33:27;;;;;;;2.40;2.20;;;;;;;;;;4568021;27;20082;-58
2022/12/21 03:35:41;;;;;;;2.65;2.35;;;;;;;;;;4550330;27;20040;-58
2022/12/21 03:37:52;;;;;;;2.55;2.30;;;;;;;;;;4571978;27;20081;-58
2022/12/21 03:40:09;;;;;;;2.53;2.33;;;;;;;;;;4570344;27;20117;-58
2022/12/21 03:42:22;;;;;;;2.55;2.35;;;;;;;;;;4566192;27;20152;-57
2022/12/21 03:44:47;;;;;;;2.42;2.22;;;;;;;;;;4571017;27;20046;-58
2022/12/21 03:46:59;;;;;;;2.78;2.58;;;;;;;;;;4557495;27;20032;-58
2022/12/21 03:49:17;;;;;;;2.72;2.42;;;;;;;;;;4569467;27;20158;-57
2022/12/21 03:51:40;;;;;;;2.65;2.30;;;;;;;;;;4565722;27;20170;-58
2022/12/21 03:53:57;;;;;;;2.35;2.15;;;;;;;;;;4568551;27;20496;-58
2022/12/21 03:56:09;;;;;;;2.53;2.33;;;;;;;;;;4566965;27;20044;-57
2022/12/21 03:58:20;;;;;;;2.47;2.28;;;;;;;;;;4556603;27;20558;-58
2022/12/21 04:00:35;;;;;;;2.47;2.28;;;;;;;;;;4567307;27;20039;-59
2022/12/21 04:02:51;;;;;;;2.20;2.00;;;;;;;;;;4568686;27;20032;-58
2022/12/21 04:05:11;;;;;;;2.42;2.22;;;;;;;;;;4567354;27;20052;-58
2022/12/21 04:07:23;;;;;;;2.72;2.53;;;;;;;;;;4570587;27;20053;-58
2022/12/21 04:09:35;;;;;;;2.50;2.30;;;;;;;;;;4569746;27;20044;-58
2022/12/21 04:14:15;;;;;;;2.97;2.15;;;;;;;;;;4567594;27;20105;-58
2022/12/21 04:16:25;;;;;;;2.78;2.47;;;;;;;;;;4566098;27;20114;-58
2022/12/21 04:21:05;;;;;;;2.50;2.30;;;;;;;;;;4569550;27;20160;-57
2022/12/21 04:28:33;;;;;;;2.35;2.15;;;;;;;;;;4571308;27;20036;-57
2022/12/21 04:30:44;;;;;;;2.63;2.40;;;;;;;;;;4566303;27;20050;-58
2022/12/21 04:32:55;;;;;;;2.60;2.40;;;;;;;;;;4566874;27;20519;-57
2022/12/21 04:35:05;;;;;;;2.40;2.20;;;;;;;;;;4567204;27;20166;-57
2022/12/21 04:37:30;;;;;;;2.67;2.47;;;;;;;;;;4567747;27;20396;-57
2022/12/21 04:39:41;;;;;;;2.53;2.33;;;;;;;;;;4566842;27;20591;-57
2022/12/21 04:41:51;;;;;;;2.55;2.35;;;;;;;;;;4567569;27;20036;-57
2022/12/21 04:44:01;;;;;;;2.63;2.42;;;;;;;;;;4566724;27;20044;-57
2022/12/21 04:46:13;;;;;;;2.67;2.47;;;;;;;;;;4566496;27;20036;-58
2022/12/21 04:48:23;;;;;;;2.55;2.30;;;;;;;;;;4568510;27;20144;-58
2022/12/21 04:50:33;;;;;;;2.45;2.25;;;;;;;;;;4566903;27;20631;-57
2022/12/21 04:52:44;;;;;;;2.53;2.33;;;;;;;;;;4565233;27;20051;-58
2022/12/21 04:54:54;;;;;;;2.40;2.20;;;;;;;;;;4551660;27;20047;-57
2022/12/21 04:57:04;;;;;;;2.33;2.13;;;;;;;;;;4556826;28;20044;-58
2022/12/21 04:59:15;;;;;;;2.85;2.55;;;;;;;;;;4566298;27;20151;-58
2022/12/21 05:01:25;;;;;;;2.30;2.10;;;;;;;;;;4566377;27;20025;-58
2022/12/21 05:03:35;;;;;;;2.90;2.33;;;;;;;;;;4565857;27;20033;-58
2022/12/21 05:05:46;;;;;;;2.70;2.50;;;;;;;;;;4567689;27;20036;-57
2022/12/21 05:07:56;;;;;;;2.42;2.22;;;;;;;;;;4567066;27;20039;-57
2022/12/21 05:10:08;;;;;;;2.50;2.30;;;;;;;;;;4565650;27;20067;-58
2022/12/21 05:12:19;;;;;;;2.60;2.40;;;;;;;;;;4568588;27;20185;-58
2022/12/21 05:14:29;;;;;;;2.58;2.38;;;;;;;;;;4567349;27;20036;-58
2022/12/21 05:16:39;;;;;;;2.50;2.30;;;;;;;;;;4547506;27;20049;-58
2022/12/21 05:18:52;;;;;;;2.92;2.63;;;;;;;;;;4565323;27;20030;-57
2022/12/21 05:21:02;;;;;;;2.58;2.38;;;;;;;;;;4567212;27;20036;-58
2022/12/21 05:23:13;;;;;;;2.42;2.22;;;;;;;;;;4565174;27;20493;-58
2022/12/21 05:25:23;;;;;;;2.47;2.28;;;;;;;;;;4566870;27;20040;-58
2022/12/21 05:27:33;;;;;;;2.50;2.30;;;;;;;;;;4565496;27;20025;-58
2022/12/21 05:29:44;;;;;;;2.50;2.30;;;;;;;;;;4566971;27;20044;-58
2022/12/21 05:31:54;;;;;;;2.40;2.20;;;;;;;;;;4567109;27;20124;-58
2022/12/21 05:34:04;;;;;;;2.80;2.60;;;;;;;;;;4566627;27;20106;-58
2022/12/21 05:36:15;;;;;;;3.00;2.80;;;;;;;;;;4567068;27;20805;-58
2022/12/21 05:38:26;;;;;;;2.70;2.50;;;;;;;;;;4569358;27;20032;-58
2022/12/21 05:40:36;;;;;;;4.50;4.10;;;;;;;;;;4567490;27;20040;-58
2022/12/21 05:42:46;;;;;;;3.70;3.40;;;;;;;;;;4557401;27;20036;-58
2022/12/21 05:44:56;;;;;;;2.80;2.60;;;;;;;;;;4568024;27;20067;-58
2022/12/21 05:47:07;;;;;;;3.20;2.90;;;;;;;;;;4567696;27;20057;-58
2022/12/21 05:49:17;;;;;;;2.67;2.47;;;;;;;;;;4567709;27;20097;-57
2022/12/21 05:51:28;;;;;;;3.40;3.10;;;;;;;;;;4555943;28;20043;-58
2022/12/21 05:53:43;;;;;;;2.60;2.40;;;;;;;;;;4564555;27;20044;-58
2022/12/21 05:55:53;;;;;;;2.38;2.10;;;;;;;;;;4567644;27;20041;-58
2022/12/21 05:58:04;;;;;;;2.30;2.10;;;;;;;;;;4564232;27;20041;-57
2022/12/21 06:00:14;;;;;;;2.50;2.30;;;;;;;;;;4565668;27;20035;-58
2022/12/21 06:02:25;;;;;;;4.00;3.70;;;;;;;;;;4551079;27;20033;-58
2022/12/21 06:04:35;;;;;;;3.40;3.10;;;;;;;;;;4567638;27;20050;-58
2022/12/21 06:06:46;;;;;;;3.10;2.80;;;;;;;;;;4566036;27;20032;-58
2022/12/21 06:08:57;;;;;;;2.70;2.50;;;;;;;;;;4568482;27;20155;-57
2022/12/21 06:11:11;;;;;;;2.70;2.50;;;;;;;;;;4570243;27;20125;-57
2022/12/21 06:13:21;;;;;;;2.58;2.38;;;;;;;;;;4571223;27;20672;-57
2022/12/21 06:15:33;;;;;;;2.40;2.20;;;;;;;;;;4556519;27;20115;-58
2022/12/21 06:17:44;;;;;;;2.15;1.95;;;;;;;;;;4558196;27;20032;-58
2022/12/21 06:19:54;;;;;;;2.10;1.90;;;;;;;;;;4566934;27;20045;-57
2022/12/21 06:22:05;;;;;;;2.17;1.98;;;;;;;;;;4567724;27;20032;-58
2022/12/21 06:24:15;;;;;;;2.28;2.08;;;;;;;;;;4568042;27;20046;-58
2022/12/21 06:26:25;;;;;;;2.17;1.98;;;;;;;;;;4570002;27;20032;-58
2022/12/21 06:28:36;;;;;;;2.00;1.80;;;;;;;;;;4567194;27;20036;-58
2022/12/21 06:30:46;;;;;;;2.10;1.92;;;;;;;;;;4568634;27;20028;-58
2022/12/21 06:32:56;;;;;;;1.90;1.80;;;;;;;;;;4568044;27;20531;-58
2022/12/21 06:35:07;;;;;;;1.80;1.70;;;;;;;;;;4570091;27;20100;-58
2022/12/21 06:37:17;;;;;;;2.30;2.10;;;;;;;;;;4554025;27;20097;-58
2022/12/21 06:39:27;;;;;;;1.70;1.60;;;;;;;;;;4568848;27;20052;-58
2022/12/21 06:41:38;;;;;;;2.03;1.92;;;;;;;;;;4572444;27;20045;-58
2022/12/21 06:43:50;;;;;;;1.85;1.75;;;;;;;;;;4567133;27;20081;-58
2022/12/21 06:46:01;;;;;;;1.90;1.80;;;;;;;;;;4568351;27;20039;-58
2022/12/21 06:48:12;;;;;;;2.40;2.20;;;;;;;;;;4568000;27;20622;-58
2022/12/21 06:50:22;;;;;;;1.80;1.70;;;;;;;;;;4568158;27;20601;-56
2022/12/21 06:52:33;;;;;;;1.80;1.70;;;;;;;;;;4568966;27;20043;-58
2022/12/21 06:54:43;;;;;;;1.70;1.60;;;;;;;;;;4557632;27;20037;-58
2022/12/21 06:56:53;;;;;;;1.90;1.80;;;;;;;;;;4567092;27;20032;-59
2022/12/21 06:59:04;;;;;;;1.92;1.80;;;;;;;;;;4567509;27;20040;-58
2022/12/21 07:01:15;;;;;;;1.58;1.48;;;;;;;;;;4568346;27;20048;-59
2022/12/21 07:03:26;;;;;;;1.73;1.63;;;;;;;;;;4568134;27;20028;-58
2022/12/21 07:05:36;;;;;;;1.50;1.40;;;;;;;;;;4571977;27;20350;-58
2022/12/21 07:07:46;;;;;;;1.60;1.50;;;;;;;;;;4570178;27;20036;-58
2022/12/21 07:09:57;;;;;;;1.40;1.30;;;;;;;;;;4569133;27;20040;-58
2022/12/21 07:12:07;;;;;;;1.60;1.50;;;;;;;;;;4570460;27;20540;-58
2022/12/21 07:14:17;;;;;;;1.58;1.48;;;;;;;;;;4566609;27;20036;-58
2022/12/21 07:16:28;;;;;;;1.50;1.40;;;;;;;;;;4566659;27;20942;-58
2022/12/21 07:18:39;;;;;;;1.67;1.58;;;;;;;;;;4567995;27;20494;-58
2022/12/21 07:20:54;;;;;;;1.70;1.60;;;;;;;;;;4568824;27;20072;-57
2022/12/21 07:23:04;;;;;;;1.50;1.40;;;;;;;;;;4551290;27;20037;-57
2022/12/21 07:25:15;;;;;;;1.40;1.30;;;;;;;;;;4565917;27;20028;-57
2022/12/21 07:27:25;;;;;;;1.50;1.40;;;;;;;;;;4568174;27;20579;-59
2022/12/21 07:29:35;;;;;;;1.40;1.30;;;;;;;;;;4560433;27;20120;-60
2022/12/21 07:31:46;;;;;;;1.67;1.58;;;;;;;;;;4568472;27;20115;-58
2022/12/21 07:33:56;;;;;;;1.98;1.70;;;;;;;;;;4567157;27;20480;-58
2022/12/21 07:36:07;;;;;;;1.80;1.70;;;;;;;;;;4569746;27;20476;-58
2022/12/21 07:38:17;;;;;;;1.70;1.60;;;;;;;;;;4569802;27;20035;-58
2022/12/21 07:40:28;;;;;;;1.55;1.45;;;;;;;;;;4570773;27;20043;-59
2022/12/21 07:42:41;;;;;;;1.48;1.38;;;;;;;;;;4566314;27;20020;-58
2022/12/21 07:45:04;;;;;;;1.58;1.48;;;;;;;;;;4552141;27;20036;-58
2022/12/21 07:47:23;;;;;;;1.50;1.40;;;;;;;;;;4539991;27;20045;-58
2022/12/21 07:49:34;;;;;;;1.50;1.40;;;;;;;;;;4568785;27;20032;-58
2022/12/21 07:51:44;;;;;;;1.50;1.40;;;;;;;;;;4566181;27;20078;-58
2022/12/21 07:53:54;;;;;;;1.60;1.50;;;;;;;;;;4574485;27;20119;-58
2022/12/21 07:56:06;;;;;;;1.30;1.20;;;;;;;;;;4564277;27;20055;-58
2022/12/21 07:58:17;;;;;;;1.40;1.30;;;;;;;;;;4546535;28;20119;-59
2022/12/21 08:00:27;;;;;;;1.48;1.38;;;;;;;;;;4545749;28;20064;-59
2022/12/21 08:02:38;;;;;;;1.38;1.27;;;;;;;;;;4556504;27;20040;-58
2022/12/21 08:04:48;;;;;;;1.10;1.00;;;;;;;;;;4559354;27;20041;-58
2022/12/21 08:06:58;;;;;;;1.02;0.93;;;;;;;;;;4546419;27;20565;-58
2022/12/21 08:09:09;;;;;;;1.65;1.00;;;;;;;;;;4566309;27;20630;-59
2022/12/21 08:11:20;;;;;;;1.15;1.05;;;;;;;;;;4568429;27;20567;-58
2022/12/21 08:13:30;;;;;;;1.20;1.10;;;;;;;;;;4568439;27;20024;-58
2022/12/21 08:15:40;;;;;;;1.60;1.30;;;;;;;;;;4564580;27;20040;-58
2022/12/21 08:17:51;;;;;;;1.40;1.27;;;;;;;;;;4568878;27;20023;-58
2022/12/21 08:20:02;;;;;;;1.30;1.17;;;;;;;;;;4565255;27;20113;-58
2022/12/21 08:22:13;;;;;;;1.40;1.30;;;;;;;;;;4561810;27;20569;-58
2022/12/21 08:24:23;;;;;;;1.30;1.20;;;;;;;;;;4561860;27;20037;-58
2022/12/21 08:26:34;;;;;;;1.38;1.27;;;;;;;;;;4562957;27;20047;-58
2022/12/21 08:28:44;;;;;;;1.60;1.50;;;;;;;;;;4566284;27;20124;-59
2022/12/21 08:31:21;;;;;;;1.77;1.52;;;;;;;;;;4564020;27;20114;-58
2022/12/21 08:33:31;;;;;;;1.77;1.60;;;;;;;;;;4562057;27;20591;-59
2022/12/21 08:35:43;;;;;;;1.73;1.60;;;;;;;;;;4553024;28;20063;-58
2022/12/21 08:37:53;;;;;;;2.45;2.10;;;;;;;;;;4563783;27;20555;-61
2022/12/21 08:40:03;;;;;;;0.80;0.80;;;;;;;;;;4565545;27;20353;-59
2022/12/21 08:42:14;;;;;;;0.63;0.63;;;;;;;;;;4562805;27;20100;-58
2022/12/21 08:44:24;;;;;;;0.60;0.60;;;;;;;;;;4562089;27;20071;-58
2022/12/21 08:46:35;;;;;;;0.70;0.70;;;;;;;;;;4564383;27;20043;-58
2022/12/21 08:48:46;;;;;;;1.05;0.95;;;;;;;;;;4563313;27;20374;-59
2022/12/21 08:50:56;;;;;;;1.00;1.00;;;;;;;;;;4553044;27;20012;-58
2022/12/21 08:53:06;;;;;;;1.30;1.20;;;;;;;;;;4562643;27;20040;-59
2022/12/21 08:55:17;;;;;;;1.20;1.10;;;;;;;;;;4565680;27;20123;-59
2022/12/21 08:57:27;;;;;;;1.42;1.10;;;;;;;;;;4547190;27;20167;-58
2022/12/21 08:59:37;;;;;;;1.23;1.13;;;;;;;;;;4560428;27;20038;-58
2022/12/21 09:01:48;;;;;;;1.20;1.10;;;;;;;;;;4561196;27;20556;-59
2022/12/21 09:03:58;;;;;;;1.10;1.00;;;;;;;;;;4562826;27;20066;-58
2022/12/21 09:06:09;;;;;;;1.20;1.10;;;;;;;;;;4562522;27;20129;-59
2022/12/21 09:08:19;;;;;;;1.30;1.20;;;;;;;;;;4547399;27;20032;-59
2022/12/21 09:10:29;;;;;;;2.05;1.60;;;;;;;;;;4570835;27;20047;-58
2022/12/21 09:12:40;;;;;;;2.22;1.90;;;;;;;;;;4562472;27;20044;-59
2022/12/21 09:14:50;;;;;;;1.50;1.40;;;;;;;;;;4560140;27;21065;-58
2022/12/21 09:17:00;;;;;;;0.88;0.85;;;;;;;;;;4562054;27;20134;-59
2022/12/21 09:19:11;;;;;;;0.60;0.60;;;;;;;;;;4549683;28;20176;-59
2022/12/21 09:21:22;;;;;;;0.50;0.50;;;;;;;;;;4568567;27;20043;-59
2022/12/21 09:23:33;;;;;;;0.45;0.45;;;;;;;;;;4565931;27;20476;-58
2022/12/21 09:25:43;;;;;;;0.60;0.47;;;;;;;;;;4562734;27;20048;-59
2022/12/21 09:27:53;;;;;;;0.60;0.60;;;;;;;;;;4563231;27;20036;-59
2022/12/21 09:30:04;;;;;;;0.80;0.80;;;;;;;;;;4565044;27;20096;-59
2022/12/21 09:32:14;;;;;;;0.70;0.70;;;;;;;;;;4565070;27;20056;-59
2022/12/21 09:34:25;;;;;;;0.73;0.73;;;;;;;;;;4563086;27;20043;-59
2022/12/21 09:36:35;;;;;;;1.00;0.90;;;;;;;;;;4564598;27;20039;-59
2022/12/21 09:38:45;;;;;;;1.25;1.10;;;;;;;;;;4563887;27;20028;-59
2022/12/21 09:41:00;;;;;;;1.13;1.00;;;;;;;;;;4547649;27;20477;-59
2022/12/21 09:43:17;;;;;;;1.75;1.40;;;;;;;;;;4561516;27;20047;-59
2022/12/21 09:45:42;;;;;;;1.30;1.20;;;;;;;;;;4564106;27;20657;-60
2022/12/21 09:47:58;;;;;;;1.30;1.20;;;;;;;;;;4566114;27;20036;-61
2022/12/21 09:50:15;;;;;;;1.20;1.10;;;;;;;;;;4550350;27;20118;-60
2022/12/21 09:52:38;;;;;;;1.27;1.15;;;;;;;;;;4564073;27;20981;-60
2022/12/21 09:55:11;;;;;;;1.70;1.60;;;;;;;;;;4562811;27;20134;-61
2022/12/21 09:57:22;;;;;;;1.75;1.65;;;;;;;;;;4562839;27;20044;-62
2022/12/21 09:59:34;;;;;;;1.67;1.58;;;;;;;;;;4564727;27;20038;-62
2022/12/21 10:01:44;;;;;;;1.80;1.70;;;;;;;;;;4562889;27;20056;-65
2022/12/21 10:04:10;;;;;;;1.92;1.80;;;;;;;;;;4561380;27;20522;-61
2022/12/21 10:06:27;;;;;;;1.83;1.63;;;;;;;;;;4563878;27;20040;-61
2022/12/21 10:08:56;;;;;;;2.00;1.85;;;;;;;;;;4556710;27;20035;-61
2022/12/21 10:11:08;;;;;;;2.70;2.45;;;;;;;;;;4553938;27;20095;-60
2022/12/21 10:13:22;;;;;;;2.38;1.92;;;;;;;;;;4555307;27;20587;-63
2022/12/21 10:15:44;;;;;;;2.20;2.00;;;;;;;;;;4563661;27;20933;-61
2022/12/21 10:17:55;;;;;;;1.95;1.85;;;;;;;;;;4563699;27;21289;-61
2022/12/21 10:20:24;;;;;;;2.40;1.90;;;;;;;;;;4562161;27;20033;-61
2022/12/21 10:22:37;;;;;;;2.35;1.88;;;;;;;;;;4524896;27;1141606;-63
2022/12/21 10:24:49;;;;;;;2.33;1.92;;;;;;;;;;4566618;27;20645;-65
2022/12/21 10:27:05;;;;;;;2.40;2.20;;;;;;;;;;4562511;27;21300;-63
2022/12/21 10:29:17;;;;;;;2.50;1.80;;;;;;;;;;4564871;27;20131;-62
2022/12/21 10:31:33;;;;;;;2.10;1.67;;;;;;;;;;4540579;27;20041;-61
2022/12/21 10:33:46;;;;;;;1.53;1.43;;;;;;;;;;4563472;27;20048;-61
2022/12/21 10:36:00;;;;;;;1.90;1.80;;;;;;;;;;4562887;27;20131;-62
2022/12/21 10:38:14;;;;;;;1.90;1.70;;;;;;;;;;4565440;27;20040;-61
2022/12/21 10:40:31;;;;;;;1.80;1.70;;;;;;;;;;4564868;27;20044;-61
2022/12/21 10:42:43;;;;;;;1.92;1.67;;;;;;;;;;4534237;27;20033;-61
2022/12/21 10:44:54;;;;;;;2.30;2.10;;;;;;;;;;4563798;27;20136;-62
2022/12/21 10:47:12;;;;;;;3.03;2.47;;;;;;;;;;4563814;27;20080;-61
2022/12/21 10:49:26;;;;;;;3.35;3.05;;;;;;;;;;4561491;27;20025;-62
2022/12/21 10:51:37;;;;;;;4.10;3.70;;;;;;;;;;4563316;27;20497;-61
2022/12/21 10:54:01;;;;;;;3.80;3.20;;;;;;;;;;4565915;27;20044;-61
2022/12/21 10:56:14;;;;;;;3.42;3.10;;;;;;;;;;4566997;27;20575;-61
2022/12/21 10:58:27;;;;;;;2.88;2.55;;;;;;;;;;4567824;27;20135;-61
2022/12/21 11:00:41;;;;;;;2.40;2.08;;;;;;;;;;4571013;27;20778;-61
2022/12/21 11:02:52;;;;;;;2.35;2.15;;;;;;;;;;4567903;27;20032;-61
2022/12/21 11:05:03;;;;;;;1.95;1.73;;;;;;;;;;4489238;27;20454;-61
2022/12/21 11:07:27;;;;;;;2.00;1.85;;;;;;;;;;4550821;27;20035;-61
2022/12/21 11:09:39;;;;;;;2.25;2.00;;;;;;;;;;4570853;27;20068;-61
2022/12/21 11:11:52;;;;;;;1.55;1.45;;;;;;;;;;4565101;27;20052;-61
2022/12/21 11:14:12;;;;;;;1.77;1.67;;;;;;;;;;4564868;27;20079;-61
2022/12/21 11:16:23;;;;;;;1.48;1.38;;;;;;;;;;4566895;27;20036;-61
2022/12/21 11:18:47;;;;;;;1.80;1.70;;;;;;;;;;4556451;27;20036;-62
2022/12/21 11:20:59;;;;;;;2.17;1.80;;;;;;;;;;4571567;27;20055;-61
2022/12/21 11:23:09;;;;;;;1.85;1.73;;;;;;;;;;4566437;27;20035;-61
2022/12/21 11:25:21;;;;;;;2.10;1.88;;;;;;;;;;4567160;27;20405;-61
2022/12/21 11:27:32;;;;;;;1.95;1.60;;;;;;;;;;4542724;27;21437;-61
2022/12/21 11:29:47;;;;;;;2.30;1.98;;;;;;;;;;4568934;27;20558;-61
2022/12/21 11:32:03;;;;;;;1.73;1.63;;;;;;;;;;4567473;27;20645;-61
2022/12/21 11:34:33;;;;;;;1.90;1.80;;;;;;;;;;4568172;27;20816;-61
2022/12/21 11:36:54;;;;;;;2.25;2.05;;;;;;;;;;4570578;27;20040;-61
2022/12/21 11:39:15;;;;;;;1.75;1.65;;;;;;;;;;4529735;27;20071;-61
2022/12/21 11:41:26;;;;;;;2.25;2.05;;;;;;;;;;4557654;27;21359;-61
2022/12/21 11:43:44;;;;;;;2.28;2.08;;;;;;;;;;4570805;27;20036;-61
2022/12/21 11:45:57;;;;;;;2.15;1.95;;;;;;;;;;4549148;27;20579;-60
2022/12/21 11:48:14;;;;;;;2.53;2.33;;;;;;;;;;4567274;27;20040;-61
2022/12/21 11:50:42;;;;;;;2.30;2.10;;;;;;;;;;4567869;27;20059;-61
2022/12/21 11:53:04;;;;;;;2.22;2.03;;;;;;;;;;4550271;27;20036;-61
2022/12/21 11:55:24;;;;;;;2.30;2.10;;;;;;;;;;4555808;27;20132;-61
2022/12/21 11:57:37;;;;;;;2.50;2.30;;;;;;;;;;4568381;27;20677;-61
2022/12/21 11:59:54;;;;;;;2.50;2.30;;;;;;;;;;4548727;27;20020;-61
2022/12/21 12:02:23;;;;;;;2.90;2.60;;;;;;;;;;4567590;27;21156;-61
2022/12/21 12:04:51;;;;;;;2.78;2.47;;;;;;;;;;4567579;27;20044;-61
2022/12/21 12:07:20;;;;;;;3.40;2.70;;;;;;;;;;4567882;27;20664;-61
2022/12/21 12:09:33;;;;;;;3.20;2.70;;;;;;;;;;4567605;27;20734;-61
2022/12/21 12:12:05;;;;;;;2.90;2.60;;;;;;;;;;4557241;27;20063;-61
2022/12/21 12:14:21;;;;;;;3.38;2.70;;;;;;;;;;4565803;27;21510;-61
2022/12/21 12:16:37;;;;;;;2.70;2.40;;;;;;;;;;4566399;27;20032;-61
2022/12/21 12:18:55;;;;;;;2.67;2.25;;;;;;;;;;4566544;27;20071;-61
2022/12/21 12:21:05;;;;;;;2.60;2.22;;;;;;;;;;4566536;27;20180;-61
2022/12/21 12:23:18;;;;;;;2.80;2.25;;;;;;;;;;4567656;27;20115;-61
2022/12/21 12:25:38;;;;;;;3.13;2.40;;;;;;;;;;4564908;27;20571;-61
2022/12/21 12:27:51;;;;;;;2.85;2.45;;;;;;;;;;4564507;27;20032;-62
2022/12/21 12:30:10;;;;;;;2.65;2.40;;;;;;;;;;4566091;27;21054;-61
2022/12/21 12:32:23;;;;;;;3.08;2.78;;;;;;;;;;4549435;27;20044;-61
2022/12/21 12:34:40;;;;;;;3.80;3.10;;;;;;;;;;4566008;27;20518;-61
2022/12/21 12:36:50;;;;;;;3.28;2.80;;;;;;;;;;4562900;27;20564;-61
2022/12/21 12:39:03;;;;;;;3.60;2.90;;;;;;;;;;4565126;27;20675;-60
2022/12/21 12:41:19;;;;;;;3.83;3.20;;;;;;;;;;4565948;27;20039;-61
2022/12/21 12:43:42;;;;;;;3.80;3.28;;;;;;;;;;4566294;27;21112;-61
2022/12/21 12:46:10;;;;;;;4.13;3.30;;;;;;;;;;4563474;27;21253;-61
2022/12/21 12:48:31;;;;;;;5.07;3.60;;;;;;;;;;4564471;27;20037;-61
2022/12/21 12:50:51;;;;;;;4.40;3.72;;;;;;;;;;4565190;27;20111;-61
2022/12/21 12:53:19;;;;;;;4.20;3.60;;;;;;;;;;4566015;27;20047;-61
2022/12/21 12:55:47;;;;;;;4.70;3.70;;;;;;;;;;4557500;27;20394;-62
2022/12/21 12:57:57;;;;;;;;;;;;;;;;;;4548439;27;20045;-61
2022/12/21 13:00:09;;;;;;;4.78;3.83;;;;;;;;;;4557718;27;19916;-61
2022/12/21 13:02:36;;;;;;;4.38;3.65;;;;;;;;;;4564688;27;20084;-61
2022/12/21 13:05:07;;;;;;;4.75;3.78;;;;;;;;;;4564310;27;20036;-61
2022/12/21 13:07:44;;;;;;;4.70;4.00;;;;;;;;;;4566062;27;20036;-61
2022/12/21 13:10:12;;;;;;;5.20;4.60;;;;;;;;;;4561618;27;20044;-61
2022/12/21 13:12:34;;;;;;;5.32;4.38;;;;;;;;;;4564408;27;20047;-61
2022/12/21 13:14:44;;;;;;;5.20;4.32;;;;;;;;;;4566448;27;20082;-61
2022/12/21 13:17:14;;;;;;;5.07;4.13;;;;;;;;;;4566577;27;20053;-61
2022/12/21 13:19:26;;;;;;;4.40;3.75;;;;;;;;;;4565989;27;20042;-61
2022/12/21 13:21:38;;;;;;;5.32;4.00;;;;;;;;;;4565821;27;20065;-61
2022/12/21 13:24:10;;;;;;;4.82;3.97;;;;;;;;;;4566034;27;20031;-61
2022/12/21 13:26:28;;;;;;;4.35;3.80;;;;;;;;;;4567310;27;20661;-61
2022/12/21 13:28:57;;;;;;;5.05;4.10;;;;;;;;;;4566141;27;20318;-60
2022/12/21 13:31:10;;;;;;;5.15;4.00;;;;;;;;;;4564871;27;20032;-61
2022/12/21 13:33:21;;;;;;;4.88;4.00;;;;;;;;;;4545874;27;20036;-61